createdAt,value
2022-09-25T00:00:59.552Z,16.70
2022-09-25T00:03:28.732Z,16.70
2022-09-25T00:06:11.298Z,16.70
2022-09-25T00:08:39.988Z,16.70
2022-09-25T00:11:09.979Z,16.70
2022-09-25T00:13:37.548Z,16.70
2022-09-25T00:16:05.012Z,16.70
2022-09-25T00:18:50.735Z,16.70
2022-09-25T00:21:18.021Z,16.70
2022-09-25T00:23:45.507Z,16.70
2022-09-25T00:26:14.470Z,16.70
2022-09-25T00:28:42.651Z,16.70
2022-09-25T00:31:10.941Z,16.70
2022-09-25T00:33:37.987Z,16.70
2022-09-25T00:36:10.558Z,16.70
2022-09-25T00:38:38.321Z,16.70
2022-09-25T00:41:07.001Z,16.70
2022-09-25T00:43:51.273Z,16.70
2022-09-25T00:46:29.671Z,16.70
2022-09-25T00:48:56.494Z,16.70
2022-09-25T00:51:29.666Z,16.70
2022-09-25T00:54:04.638Z,16.70
2022-09-25T00:56:37.683Z,16.60
2022-09-25T00:59:05.683Z,16.70
2022-09-25T01:01:32.433Z,16.60
2022-09-25T01:03:59.729Z,16.60
2022-09-25T01:06:27.158Z,16.70
2022-09-25T01:08:55.213Z,16.60
2022-09-25T01:11:22.013Z,16.70
2022-09-25T01:13:49.242Z,16.70
2022-09-25T01:16:24.048Z,16.70
2022-09-25T01:19:29.123Z,16.70
2022-09-25T01:21:55.679Z,16.70
2022-09-25T01:24:49.097Z,16.70
2022-09-25T01:27:35.922Z,16.60
2022-09-25T01:30:13.438Z,16.60
2022-09-25T01:33:00.586Z,16.50
2022-09-25T01:35:55.237Z,16.50
2022-09-25T01:38:25.212Z,16.50
2022-09-25T01:41:05.278Z,16.50
2022-09-25T01:43:40.522Z,16.40
2022-09-25T01:46:18.296Z,16.50
2022-09-25T01:48:50.280Z,16.50
2022-09-25T01:51:29.642Z,16.50
2022-09-25T01:54:02.798Z,16.50
2022-09-25T01:56:34.759Z,16.50
2022-09-25T01:59:14.534Z,16.50
2022-09-25T02:01:43.485Z,16.50
2022-09-25T02:04:26.170Z,16.50
2022-09-25T02:06:55.581Z,16.60
2022-09-25T02:09:29.466Z,16.50
2022-09-25T02:12:01.633Z,16.50
2022-09-25T02:14:35.101Z,16.60
2022-09-25T02:17:07.324Z,16.60
2022-09-25T02:19:52.617Z,16.60
2022-09-25T02:22:26.580Z,16.60
2022-09-25T02:24:59.293Z,16.50
2022-09-25T02:27:28.693Z,16.60
2022-09-25T02:29:57.493Z,16.60
2022-09-25T02:32:31.001Z,16.60
2022-09-25T02:34:59.849Z,16.50
2022-09-25T02:37:27.409Z,16.60
2022-09-25T02:39:58.044Z,16.50
2022-09-25T02:42:55.008Z,16.50
2022-09-25T02:45:34.249Z,16.50
2022-09-25T02:48:10.033Z,16.60
2022-09-25T02:51:04.021Z,16.60
2022-09-25T02:53:49.824Z,16.60
2022-09-25T02:56:28.768Z,16.60
2022-09-25T02:58:59.096Z,16.60
2022-09-25T03:01:29.027Z,16.60
2022-09-25T03:03:58.734Z,16.50
2022-09-25T03:06:26.453Z,16.50
2022-09-25T03:08:56.784Z,16.50
2022-09-25T03:11:26.909Z,16.50
2022-09-25T03:14:02.205Z,16.50
2022-09-25T03:16:47.953Z,16.50
2022-09-25T03:19:15.929Z,16.40
2022-09-25T03:21:42.788Z,16.40
2022-09-25T03:24:10.283Z,16.40
2022-09-25T03:26:37.008Z,16.50
2022-09-25T03:29:04.156Z,16.40
2022-09-25T03:31:31.402Z,16.40
2022-09-25T03:33:58.480Z,16.40
2022-09-25T03:36:27.452Z,16.40
2022-09-25T03:38:59.194Z,16.40
2022-09-25T03:41:34.509Z,16.40
2022-09-25T03:44:01.756Z,16.50
2022-09-25T03:46:33.973Z,16.50
2022-09-25T03:49:01.798Z,16.50
2022-09-25T03:51:30.445Z,16.50
2022-09-25T03:53:57.343Z,16.40
2022-09-25T03:56:26.534Z,16.50
2022-09-25T03:58:54.407Z,16.50
2022-09-25T04:01:22.695Z,16.50
2022-09-25T04:03:50.622Z,16.50
2022-09-25T04:06:20.245Z,16.50
2022-09-25T04:08:48.170Z,16.50
2022-09-25T04:11:16.559Z,16.50
2022-09-25T04:13:44.970Z,16.60
2022-09-25T04:16:13.832Z,16.50
2022-09-25T04:18:42.653Z,16.50
2022-09-25T04:21:11.631Z,16.50
2022-09-25T04:23:39.437Z,16.50
2022-09-25T04:26:07.670Z,16.50
2022-09-25T04:28:35.589Z,16.40
2022-09-25T04:31:03.667Z,16.40
2022-09-25T04:33:48.911Z,16.40
2022-09-25T04:36:16.912Z,16.40
2022-09-25T04:38:44.044Z,16.30
2022-09-25T04:41:11.170Z,16.30
2022-09-25T04:43:37.978Z,16.40
2022-09-25T04:46:07.500Z,16.40
2022-09-25T04:48:35.832Z,16.40
2022-09-25T04:51:05.701Z,16.40
2022-09-25T04:53:35.527Z,16.40
2022-09-25T04:56:05.336Z,16.40
2022-09-25T04:58:32.240Z,16.40
2022-09-25T05:01:09.172Z,16.40
2022-09-25T05:03:36.225Z,16.40
2022-09-25T05:06:03.217Z,16.40
2022-09-25T05:08:29.979Z,16.40
2022-09-25T05:10:56.663Z,16.40
2022-09-25T05:13:23.799Z,16.40
2022-09-25T05:15:51.203Z,16.50
2022-09-25T05:18:20.712Z,16.40
2022-09-25T05:20:48.580Z,16.50
2022-09-25T05:23:16.163Z,16.50
2022-09-25T05:25:43.047Z,16.50
2022-09-25T05:28:10.609Z,16.50
2022-09-25T05:30:38.814Z,16.50
2022-09-25T05:33:06.067Z,16.50
2022-09-25T05:35:33.685Z,16.50
2022-09-25T05:38:00.728Z,16.50
2022-09-25T05:40:27.737Z,16.50
2022-09-25T05:42:55.398Z,16.60
2022-09-25T05:45:25.999Z,16.50
2022-09-25T05:48:07.611Z,16.60
2022-09-25T05:50:34.686Z,16.60
2022-09-25T05:53:05.661Z,16.60
2022-09-25T05:55:32.463Z,16.60
2022-09-25T05:58:04.011Z,16.60
2022-09-25T06:00:32.929Z,16.70
2022-09-25T06:03:02.873Z,16.70
2022-09-25T06:05:30.187Z,16.70
2022-09-25T06:07:57.087Z,16.70
2022-09-25T06:10:26.043Z,16.70
2022-09-25T06:12:58.691Z,16.70
2022-09-25T06:15:27.718Z,16.80
2022-09-25T06:17:55.684Z,16.80
2022-09-25T06:20:22.726Z,16.80
2022-09-25T06:22:56.652Z,16.80
2022-09-25T06:25:29.263Z,16.80
2022-09-25T06:27:57.241Z,16.80
2022-09-25T06:30:27.493Z,16.70
2022-09-25T06:33:00.881Z,16.70
2022-09-25T06:35:29.265Z,16.70
2022-09-25T06:37:59.901Z,16.80
2022-09-25T06:40:28.393Z,16.80
2022-09-25T06:42:59.494Z,16.90
2022-09-25T06:45:27.908Z,17.00
2022-09-25T06:47:59.794Z,17.10
2022-09-25T06:50:31.866Z,17.00
2022-09-25T06:53:01.953Z,17.00
2022-09-25T06:55:32.320Z,16.90
2022-09-25T06:57:59.231Z,17.00
2022-09-25T07:00:26.134Z,17.10
2022-09-25T07:03:11.487Z,17.00
2022-09-25T07:05:38.320Z,17.10
2022-09-25T07:08:05.009Z,17.10
2022-09-25T07:10:31.641Z,17.00
2022-09-25T07:12:58.903Z,17.00
2022-09-25T07:15:25.577Z,17.00
2022-09-25T07:17:52.251Z,17.00
2022-09-25T07:20:19.159Z,16.90
2022-09-25T07:22:45.768Z,16.90
2022-09-25T07:25:14.221Z,16.90
2022-09-25T07:27:41.217Z,16.90
2022-09-25T07:30:08.801Z,16.90
2022-09-25T07:32:35.961Z,17.00
2022-09-25T07:35:03.371Z,17.00
2022-09-25T07:37:31.259Z,17.00
2022-09-25T07:39:57.958Z,16.90
2022-09-25T07:42:25.005Z,16.80
2022-09-25T07:44:51.975Z,16.70
2022-09-25T07:47:19.507Z,16.80
2022-09-25T07:49:46.896Z,17.00
2022-09-25T07:52:14.256Z,16.80
2022-09-25T07:54:41.033Z,16.70
2022-09-25T07:57:07.759Z,16.90
2022-09-25T07:59:34.428Z,17.00
2022-09-25T08:02:01.381Z,17.20
2022-09-25T08:04:28.157Z,17.30
2022-09-25T08:06:54.794Z,17.20
2022-09-25T08:09:21.488Z,17.30
2022-09-25T08:11:48.251Z,17.40
2022-09-25T08:14:15.749Z,17.20
2022-09-25T08:16:43.374Z,17.30
2022-09-25T08:19:13.921Z,17.30
2022-09-25T08:21:40.708Z,17.40
2022-09-25T08:24:07.606Z,17.40
2022-09-25T08:26:34.360Z,17.30
2022-09-25T08:29:01.171Z,17.20
2022-09-25T08:31:27.806Z,17.20
2022-09-25T08:33:54.631Z,17.20
2022-09-25T08:36:22.280Z,17.10
2022-09-25T08:38:49.344Z,17.20
2022-09-25T08:41:26.773Z,17.00
2022-09-25T08:44:05.308Z,17.10
2022-09-25T08:47:19.551Z,17.30
2022-09-25T08:50:05.024Z,17.60
2022-09-25T08:52:32.541Z,17.80
2022-09-25T08:54:59.251Z,17.90
2022-09-25T08:57:37.320Z,18.00
2022-09-25T09:00:18.024Z,18.20
2022-09-25T09:02:55.210Z,18.30
2022-09-25T09:05:37.366Z,18.50
2022-09-25T09:08:15.622Z,18.40
2022-09-25T09:10:57.805Z,18.40
2022-09-25T09:13:39.369Z,18.30
2022-09-25T09:16:27.302Z,18.20
2022-09-25T09:18:55.942Z,18.20
2022-09-25T09:21:36.707Z,18.30
2022-09-25T09:24:18.999Z,18.30
2022-09-25T09:26:54.305Z,18.30
2022-09-25T09:29:29.818Z,18.30
2022-09-25T09:32:15.403Z,18.20
2022-09-25T09:35:05.686Z,18.20
2022-09-25T09:37:39.106Z,18.10
2022-09-25T09:40:25.866Z,17.70
2022-09-25T09:43:43.564Z,17.80
2022-09-25T09:46:25.512Z,17.90
2022-09-25T09:49:29.687Z,18.00
2022-09-25T09:52:11.585Z,17.90
2022-09-25T09:54:53.020Z,17.80
2022-09-25T09:57:24.626Z,17.80
2022-09-25T10:00:07.481Z,17.90
2022-09-25T10:02:42.219Z,18.20
2022-09-25T10:05:31.961Z,18.50
2022-09-25T10:07:58.932Z,18.90
2022-09-25T10:10:43.367Z,19.10
2022-09-25T10:13:36.226Z,19.40
2022-09-25T10:16:22.605Z,19.60
2022-09-25T10:19:05.814Z,19.70
2022-09-25T10:21:42.472Z,20.00
2022-09-25T10:24:09.401Z,20.10
2022-09-25T10:26:38.659Z,20.20
2022-09-25T10:29:26.812Z,20.00
2022-09-25T10:32:05.664Z,19.90
2022-09-25T10:34:33.081Z,20.10
2022-09-25T10:37:20.646Z,20.10
2022-09-25T10:40:02.514Z,20.10
2022-09-25T10:42:37.607Z,20.00
2022-09-25T10:45:22.679Z,20.00
2022-09-25T10:48:09.567Z,20.00
2022-09-25T10:50:39.419Z,20.10
2022-09-25T10:53:07.582Z,20.40
2022-09-25T10:55:46.425Z,20.70
2022-09-25T10:58:20.131Z,20.80
2022-09-25T11:00:46.884Z,21.00
2022-09-25T11:03:26.620Z,21.10
2022-09-25T11:06:03.808Z,21.20
2022-09-25T11:08:34.472Z,21.20
2022-09-25T11:11:02.973Z,21.10
2022-09-25T11:13:45.528Z,21.00
2022-09-25T11:16:12.598Z,21.00
2022-09-25T11:18:50.723Z,21.10
2022-09-25T11:21:40.004Z,21.20
2022-09-25T11:24:20.405Z,21.00
2022-09-25T11:26:58.523Z,21.10
2022-09-25T11:29:44.663Z,21.20
2022-09-25T11:32:32.015Z,21.50
2022-09-25T11:35:17.833Z,21.90
2022-09-25T11:37:44.403Z,22.10
2022-09-25T11:40:29.831Z,22.20
2022-09-25T11:43:09.470Z,22.20
2022-09-25T11:45:54.983Z,22.30
2022-09-25T11:48:48.122Z,22.30
2022-09-25T11:51:35.978Z,22.40
2022-09-25T11:54:38.002Z,22.20
2022-09-25T11:57:38.012Z,21.80
2022-09-25T12:00:17.838Z,21.80
2022-09-25T12:02:56.624Z,21.90
2022-09-25T12:05:50.925Z,21.30
2022-09-25T12:08:50.416Z,21.60
2022-09-25T12:11:37.993Z,21.80
2022-09-25T12:14:10.723Z,21.90
2022-09-25T12:17:09.372Z,22.20
2022-09-25T12:19:56.329Z,22.20
2022-09-25T12:22:35.737Z,22.10
2022-09-25T12:25:11.473Z,22.10
2022-09-25T12:27:49.543Z,22.20
2022-09-25T12:30:25.489Z,22.40
2022-09-25T12:33:15.027Z,22.70
2022-09-25T12:36:05.214Z,23.00
2022-09-25T12:39:05.260Z,23.20
2022-09-25T12:41:50.270Z,23.60
2022-09-25T12:44:16.863Z,24.00
2022-09-25T12:46:49.833Z,24.60
2022-09-25T12:49:47.379Z,26.20
2022-09-25T12:52:20.186Z,28.50
2022-09-25T12:54:59.029Z,29.80
2022-09-25T12:57:37.295Z,30.20
2022-09-25T13:00:14.944Z,29.80
2022-09-25T13:03:00.787Z,29.10
2022-09-25T13:05:45.389Z,28.80
2022-09-25T13:08:24.292Z,30.50
2022-09-25T13:11:06.853Z,31.50
2022-09-25T13:13:45.420Z,31.90
2022-09-25T13:16:15.987Z,32.80
2022-09-25T13:19:09.589Z,31.50
2022-09-25T13:21:42.963Z,29.10
2022-09-25T13:24:15.444Z,27.60
2022-09-25T13:26:55.164Z,26.60
2022-09-25T13:29:41.243Z,25.90
2022-09-25T13:32:19.454Z,26.20
2022-09-25T13:34:46.757Z,27.40
2022-09-25T13:37:15.746Z,27.10
2022-09-25T13:40:08.054Z,26.20
2022-09-25T13:42:42.241Z,25.00
2022-09-25T13:45:29.856Z,24.10
2022-09-25T13:48:12.133Z,23.50
2022-09-25T13:50:41.218Z,22.90
2022-09-25T13:53:17.347Z,22.30
2022-09-25T13:55:50.196Z,21.80
2022-09-25T13:58:18.022Z,21.60
2022-09-25T14:00:53.655Z,21.60
2022-09-25T14:03:32.346Z,21.70
2022-09-25T14:06:00.730Z,21.80
2022-09-25T14:08:31.160Z,22.00
2022-09-25T14:11:01.761Z,22.00
2022-09-25T14:13:30.965Z,22.00
2022-09-25T14:16:00.531Z,21.80
2022-09-25T14:18:38.790Z,21.70
2022-09-25T14:21:09.805Z,21.80
2022-09-25T14:23:51.887Z,22.00
2022-09-25T14:26:26.486Z,22.10
2022-09-25T14:28:55.763Z,22.20
2022-09-25T14:31:31.943Z,22.40
2022-09-25T14:34:07.999Z,22.50
2022-09-25T14:36:43.552Z,22.60
2022-09-25T14:39:25.690Z,22.50
2022-09-25T14:41:55.758Z,22.10
2022-09-25T14:44:31.590Z,21.70
2022-09-25T14:46:58.963Z,21.30
2022-09-25T14:49:33.932Z,21.10
2022-09-25T14:52:04.619Z,21.20
2022-09-25T14:54:36.675Z,20.70
2022-09-25T14:57:05.926Z,20.90
2022-09-25T14:59:42.035Z,20.50
2022-09-25T15:02:16.102Z,20.40
2022-09-25T15:04:43.009Z,20.50
2022-09-25T15:07:16.907Z,20.70
2022-09-25T15:09:48.740Z,20.70
2022-09-25T15:12:30.560Z,20.80
2022-09-25T15:15:12.965Z,20.90
2022-09-25T15:17:57.761Z,20.90
2022-09-25T15:20:28.381Z,20.80
2022-09-25T15:22:59.567Z,21.10
2022-09-25T15:25:33.951Z,21.10
2022-09-25T15:28:04.453Z,21.30
2022-09-25T15:30:32.573Z,21.20
2022-09-25T15:33:01.072Z,21.20
2022-09-25T15:35:29.851Z,21.30
2022-09-25T15:38:10.736Z,21.50
2022-09-25T15:40:38.011Z,21.50
2022-09-25T15:43:12.617Z,21.50
2022-09-25T15:45:55.819Z,21.40
2022-09-25T15:48:22.856Z,21.30
2022-09-25T15:50:50.078Z,21.50
2022-09-25T15:53:28.092Z,23.60
2022-09-25T15:56:05.327Z,25.70
2022-09-25T15:58:51.336Z,27.20
2022-09-25T16:01:45.177Z,27.50
2022-09-25T16:04:40.074Z,26.30
2022-09-25T16:07:27.873Z,24.70
2022-09-25T16:09:58.155Z,23.30
2022-09-25T16:12:35.920Z,22.60
2022-09-25T16:15:29.885Z,21.80
2022-09-25T16:18:04.428Z,21.30
2022-09-25T16:20:38.466Z,21.10
2022-09-25T16:23:17.146Z,21.00
2022-09-25T16:25:45.268Z,20.70
2022-09-25T16:28:19.553Z,20.60
2022-09-25T16:31:04.936Z,20.30
2022-09-25T16:33:52.719Z,20.20
2022-09-25T16:36:19.660Z,20.10
2022-09-25T16:39:08.255Z,20.10
2022-09-25T16:41:54.108Z,20.00
2022-09-25T16:44:27.756Z,19.00
2022-09-25T16:47:00.512Z,19.50
2022-09-25T16:49:27.202Z,20.10
2022-09-25T16:51:55.234Z,19.60
2022-09-25T16:54:28.420Z,19.60
2022-09-25T16:56:58.499Z,19.70
2022-09-25T16:59:28.179Z,19.60
2022-09-25T17:01:58.975Z,19.30
2022-09-25T17:04:27.975Z,19.30
2022-09-25T17:06:57.945Z,19.00
2022-09-25T17:09:28.767Z,19.00
2022-09-25T17:12:20.279Z,19.00
2022-09-25T17:14:48.110Z,19.10
2022-09-25T17:17:18.941Z,18.90
2022-09-25T17:19:45.797Z,18.90
2022-09-25T17:22:13.109Z,18.80
2022-09-25T17:24:39.930Z,18.70
2022-09-25T17:27:16.615Z,18.70
2022-09-25T17:29:46.646Z,18.90
2022-09-25T17:32:15.193Z,18.90
2022-09-25T17:34:45.122Z,18.90
2022-09-25T17:37:12.102Z,18.80
2022-09-25T17:39:38.921Z,18.60
2022-09-25T17:42:05.870Z,18.60
2022-09-25T17:44:32.924Z,18.60
2022-09-25T17:47:00.942Z,18.50
2022-09-25T17:49:27.757Z,18.50
2022-09-25T17:51:56.712Z,18.70
2022-09-25T17:54:24.876Z,18.80
2022-09-25T17:56:51.608Z,18.80
2022-09-25T17:59:18.340Z,18.80
2022-09-25T18:01:46.721Z,18.70
2022-09-25T18:04:23.456Z,18.80
2022-09-25T18:06:50.469Z,18.70
2022-09-25T18:09:17.320Z,18.70
2022-09-25T18:11:44.994Z,18.70
2022-09-25T18:14:13.451Z,18.70
2022-09-25T18:16:42.387Z,18.70
2022-09-25T18:19:38.606Z,18.70
2022-09-25T18:22:18.786Z,18.70
2022-09-25T18:24:46.942Z,18.60
2022-09-25T18:27:15.714Z,18.60
2022-09-25T18:29:44.461Z,18.60
2022-09-25T18:32:11.760Z,18.50
2022-09-25T18:34:38.413Z,18.30
2022-09-25T18:37:05.148Z,18.20
2022-09-25T18:39:32.157Z,18.00
2022-09-25T18:41:58.791Z,18.00
2022-09-25T18:44:27.275Z,18.10
2022-09-25T18:46:54.727Z,18.20
2022-09-25T18:49:23.739Z,18.30
2022-09-25T18:51:52.121Z,18.40
2022-09-25T18:54:19.701Z,18.40
2022-09-25T18:56:46.608Z,18.30
2022-09-25T18:59:15.396Z,18.30
2022-09-25T19:01:42.468Z,18.20
2022-09-25T19:04:17.369Z,18.20
2022-09-25T19:06:45.942Z,18.20
2022-09-25T19:09:17.011Z,18.20
2022-09-25T19:11:47.016Z,18.20
2022-09-25T19:14:16.480Z,18.20
2022-09-25T19:16:43.695Z,18.20
2022-09-25T19:19:13.117Z,18.20
2022-09-25T19:21:42.670Z,18.20
2022-09-25T19:24:09.740Z,18.20
2022-09-25T19:26:36.938Z,18.00
2022-09-25T19:29:05.196Z,18.00
2022-09-25T19:31:31.986Z,18.00
2022-09-25T19:34:00.945Z,18.00
2022-09-25T19:36:34.083Z,18.00
2022-09-25T19:39:01.482Z,18.00
2022-09-25T19:41:30.443Z,18.00
2022-09-25T19:43:59.382Z,18.00
2022-09-25T19:46:29.049Z,18.10
2022-09-25T19:48:55.918Z,18.10
2022-09-25T19:51:27.685Z,18.10
2022-09-25T19:53:54.760Z,18.10
2022-09-25T19:56:23.160Z,18.10
2022-09-25T19:58:52.783Z,18.00
2022-09-25T20:01:31.833Z,18.00
2022-09-25T20:03:59.006Z,18.00
2022-09-25T20:06:28.727Z,18.00
2022-09-25T20:09:03.013Z,17.90
2022-09-25T20:11:31.211Z,18.00
2022-09-25T20:14:00.338Z,17.90
2022-09-25T20:16:29.566Z,17.80
2022-09-25T20:19:00.160Z,17.70
2022-09-25T20:21:31.763Z,17.60
2022-09-25T20:24:00.335Z,17.60
2022-09-25T20:26:28.004Z,17.50
2022-09-25T20:29:00.008Z,17.50
2022-09-25T20:31:30.176Z,17.50
2022-09-25T20:33:57.236Z,17.50
2022-09-25T20:36:24.780Z,17.40
2022-09-25T20:39:00.614Z,17.40
2022-09-25T20:41:27.486Z,17.40
2022-09-25T20:43:58.132Z,17.40
2022-09-25T20:46:28.081Z,17.40
2022-09-25T20:48:59.128Z,17.40
2022-09-25T20:51:29.650Z,17.40
2022-09-25T20:54:16.640Z,17.40
2022-09-25T20:56:43.855Z,17.30
2022-09-25T20:59:15.344Z,17.30
2022-09-25T21:01:42.347Z,17.30
2022-09-25T21:04:09.962Z,17.30
2022-09-25T21:06:38.900Z,17.30
2022-09-25T21:09:09.350Z,17.40
2022-09-25T21:11:37.530Z,17.30
2022-09-25T21:14:04.346Z,17.30
2022-09-25T21:16:34.681Z,17.30
2022-09-25T21:19:04.724Z,17.30
2022-09-25T21:21:34.815Z,17.30
2022-09-25T21:24:03.795Z,17.30
2022-09-25T21:26:31.671Z,17.30
2022-09-25T21:29:05.183Z,17.30
2022-09-25T21:31:35.339Z,17.20
2022-09-25T21:34:02.227Z,17.20
2022-09-25T21:36:30.274Z,17.20
2022-09-25T21:38:58.164Z,17.10
2022-09-25T21:41:27.628Z,17.10
2022-09-25T21:43:56.796Z,17.00
2022-09-25T21:46:24.724Z,17.00
2022-09-25T21:48:59.892Z,16.90
2022-09-25T21:51:30.200Z,16.90
2022-09-25T21:53:56.919Z,16.90
2022-09-25T21:56:26.289Z,16.90
2022-09-25T21:58:55.209Z,17.00
2022-09-25T22:01:32.356Z,17.10
2022-09-25T22:04:00.031Z,17.10
2022-09-25T22:06:29.785Z,17.10
2022-09-25T22:08:59.075Z,17.20
2022-09-25T22:11:27.059Z,17.20
2022-09-25T22:13:57.489Z,17.20
2022-09-25T22:16:30.371Z,17.30
2022-09-25T22:19:00.242Z,17.20
2022-09-25T22:21:30.404Z,17.20
2022-09-25T22:23:57.751Z,17.30
2022-09-25T22:26:25.523Z,17.20
2022-09-25T22:28:52.611Z,17.20
2022-09-25T22:31:25.801Z,17.30
2022-09-25T22:34:07.129Z,17.20
2022-09-25T22:36:36.323Z,17.20
2022-09-25T22:39:06.393Z,17.20
2022-09-25T22:41:33.549Z,17.20
2022-09-25T22:44:01.105Z,17.10
2022-09-25T22:46:28.680Z,17.00
2022-09-25T22:48:55.792Z,17.10
2022-09-25T22:51:24.832Z,17.10
2022-09-25T22:53:52.996Z,17.10
2022-09-25T22:56:29.192Z,17.10
2022-09-25T22:58:59.879Z,18.10
2022-09-25T23:01:29.105Z,17.00
2022-09-25T23:04:02.070Z,17.00
2022-09-25T23:06:30.525Z,17.00
2022-09-25T23:09:04.016Z,16.90
2022-09-25T23:11:31.367Z,16.90
2022-09-25T23:14:04.266Z,16.90
2022-09-25T23:16:32.332Z,16.80
2022-09-25T23:19:00.545Z,16.70
2022-09-25T23:21:29.366Z,16.70
2022-09-25T23:23:57.680Z,16.70
2022-09-25T23:26:25.277Z,16.80
2022-09-25T23:28:52.382Z,16.80
2022-09-25T23:31:19.478Z,16.80
2022-09-25T23:33:46.737Z,16.80
2022-09-25T23:36:20.325Z,16.80
2022-09-25T23:38:48.336Z,16.70
2022-09-25T23:41:24.943Z,16.70
2022-09-25T23:43:52.730Z,16.60
2022-09-25T23:46:21.724Z,16.70
2022-09-25T23:48:49.233Z,16.60
2022-09-25T23:51:17.645Z,16.50
2022-09-25T23:53:44.745Z,16.50
2022-09-25T23:56:15.004Z,16.50
2022-09-25T23:58:42.382Z,16.50
